sensor_id;sensor_type;location;lat;lon;timestamp;pressure;altitude;pressure_sealevel;temperature;humidity
34374;BME280;20637;55.770;37.592;2024-02-28T00:01:02;100763.13;;;-1.43;58.91
34374;BME280;20637;55.770;37.592;2024-02-28T00:03:28;100758.59;;;-1.41;59.65
34374;BME280;20637;55.770;37.592;2024-02-28T00:05:53;100763.84;;;-1.40;59.04
34374;BME280;20637;55.770;37.592;2024-02-28T00:08:19;100765.63;;;-1.40;59.30
34374;BME280;20637;55.770;37.592;2024-02-28T00:10:45;100769.19;;;-1.41;59.60
34374;BME280;20637;55.770;37.592;2024-02-28T00:13:11;100770.91;;;-1.40;59.68
34374;BME280;20637;55.770;37.592;2024-02-28T00:15:37;100761.25;;;-1.41;59.38
34374;BME280;20637;55.770;37.592;2024-02-28T00:18:03;100766.50;;;-1.40;59.64
34374;BME280;20637;55.770;37.592;2024-02-28T00:20:29;100769.06;;;-1.38;59.67
34374;BME280;20637;55.770;37.592;2024-02-28T00:22:55;100770.84;;;-1.39;59.78
34374;BME280;20637;55.770;37.592;2024-02-28T00:25:20;100771.69;;;-1.38;59.73
34374;BME280;20637;55.770;37.592;2024-02-28T00:27:46;100778.06;;;-1.42;59.59
34374;BME280;20637;55.770;37.592;2024-02-28T00:30:12;100775.53;;;-1.46;59.94
34374;BME280;20637;55.770;37.592;2024-02-28T00:32:37;100770.44;;;-1.50;59.94
34374;BME280;20637;55.770;37.592;2024-02-28T00:35:03;100770.44;;;-1.50;59.98
34374;BME280;20637;55.770;37.592;2024-02-28T00:37:30;100763.44;;;-1.51;60.24
34374;BME280;20637;55.770;37.592;2024-02-28T00:39:56;100772.03;;;-1.46;60.08
34374;BME280;20637;55.770;37.592;2024-02-28T00:42:22;100772.97;;;-1.47;60.33
34374;BME280;20637;55.770;37.592;2024-02-28T00:44:48;100768.59;;;-1.48;60.04
34374;BME280;20637;55.770;37.592;2024-02-28T00:47:13;100774.69;;;-1.46;60.31
34374;BME280;20637;55.770;37.592;2024-02-28T00:49:39;100774.63;;;-1.45;60.44
34374;BME280;20637;55.770;37.592;2024-02-28T00:52:05;100771.09;;;-1.45;60.03
34374;BME280;20637;55.770;37.592;2024-02-28T00:54:31;100771.16;;;-1.47;60.18
34374;BME280;20637;55.770;37.592;2024-02-28T00:56:57;100760.66;;;-1.48;60.39
34374;BME280;20637;55.770;37.592;2024-02-28T00:59:22;100755.41;;;-1.50;60.34
34374;BME280;20637;55.770;37.592;2024-02-28T01:01:48;100758.97;;;-1.51;60.68
34374;BME280;20637;55.770;37.592;2024-02-28T01:04:14;100762.81;;;-1.58;60.40
34374;BME280;20637;55.770;37.592;2024-02-28T01:06:40;100758.72;;;-1.65;60.63
34374;BME280;20637;55.770;37.592;2024-02-28T01:09:05;100762.34;;;-1.67;60.33
34374;BME280;20637;55.770;37.592;2024-02-28T01:11:31;100760.63;;;-1.68;60.67
34374;BME280;20637;55.770;37.592;2024-02-28T01:13:57;100759.13;;;-1.74;60.91
34374;BME280;20637;55.770;37.592;2024-02-28T01:16:22;100758.13;;;-1.71;60.66
34374;BME280;20637;55.770;37.592;2024-02-28T01:18:48;100741.31;;;-1.70;61.25
34374;BME280;20637;55.770;37.592;2024-02-28T01:21:13;100735.34;;;-1.75;60.95
34374;BME280;20637;55.770;37.592;2024-02-28T01:23:39;100734.47;;;-1.76;61.48
34374;BME280;20637;55.770;37.592;2024-02-28T01:26:05;100732.75;;;-1.77;61.05
34374;BME280;20637;55.770;37.592;2024-02-28T01:28:31;100731.88;;;-1.77;60.79
34374;BME280;20637;55.770;37.592;2024-02-28T01:30:57;100731.97;;;-1.79;61.53
34374;BME280;20637;55.770;37.592;2024-02-28T01:33:23;100739.00;;;-1.78;61.38
34374;BME280;20637;55.770;37.592;2024-02-28T01:35:49;100739.63;;;-1.73;61.54
34374;BME280;20637;55.770;37.592;2024-02-28T01:38:15;100740.63;;;-1.75;61.59
34374;BME280;20637;55.770;37.592;2024-02-28T01:40:45;100742.41;;;-1.76;61.73
34374;BME280;20637;55.770;37.592;2024-02-28T01:43:11;100735.28;;;-1.74;61.50
34374;BME280;20637;55.770;37.592;2024-02-28T01:45:38;100735.34;;;-1.75;61.61
34374;BME280;20637;55.770;37.592;2024-02-28T01:48:04;100749.34;;;-1.73;61.88
34374;BME280;20637;55.770;37.592;2024-02-28T01:50:32;100738.72;;;-1.72;62.04
34374;BME280;20637;55.770;37.592;2024-02-28T01:52:58;100750.16;;;-1.71;61.72
34374;BME280;20637;55.770;37.592;2024-02-28T01:55:25;100746.53;;;-1.69;61.90
34374;BME280;20637;55.770;37.592;2024-02-28T01:57:52;100747.38;;;-1.68;61.91
34374;BME280;20637;55.770;37.592;2024-02-28T02:00:18;100744.56;;;-1.64;62.07
34374;BME280;20637;55.770;37.592;2024-02-28T02:02:44;100740.03;;;-1.62;61.88
34374;BME280;20637;55.770;37.592;2024-02-28T02:05:10;100736.56;;;-1.62;61.69
34374;BME280;20637;55.770;37.592;2024-02-28T02:07:36;100732.22;;;-1.65;62.04
34374;BME280;20637;55.770;37.592;2024-02-28T02:10:02;100724.44;;;-1.68;62.29
34374;BME280;20637;55.770;37.592;2024-02-28T02:12:30;100720.13;;;-1.70;62.32
34374;BME280;20637;55.770;37.592;2024-02-28T02:14:58;100721.09;;;-1.73;62.49
34374;BME280;20637;55.770;37.592;2024-02-28T02:17:24;100726.41;;;-1.73;62.26
34374;BME280;20637;55.770;37.592;2024-02-28T02:19:49;100719.47;;;-1.75;62.52
34374;BME280;20637;55.770;37.592;2024-02-28T02:22:15;100708.06;;;-1.77;62.42
34374;BME280;20637;55.770;37.592;2024-02-28T02:24:42;100714.16;;;-1.75;62.87
34374;BME280;20637;55.770;37.592;2024-02-28T02:27:08;100718.47;;;-1.73;62.99
34374;BME280;20637;55.770;37.592;2024-02-28T02:29:33;100722.09;;;-1.75;63.29
34374;BME280;20637;55.770;37.592;2024-02-28T02:31:59;100718.47;;;-1.73;63.36
34374;BME280;20637;55.770;37.592;2024-02-28T02:34:25;100711.31;;;-1.71;62.73
34374;BME280;20637;55.770;37.592;2024-02-28T02:36:52;100721.84;;;-1.69;63.12
34374;BME280;20637;55.770;37.592;2024-02-28T02:39:17;100713.69;;;-1.65;63.19
34374;BME280;20637;55.770;37.592;2024-02-28T02:41:43;100710.88;;;-1.60;63.34
34374;BME280;20637;55.770;37.592;2024-02-28T02:44:09;100710.09;;;-1.62;63.34
34374;BME280;20637;55.770;37.592;2024-02-28T02:46:34;100718.81;;;-1.60;63.10
34374;BME280;20637;55.770;37.592;2024-02-28T02:49:00;100718.63;;;-1.56;63.35
34374;BME280;20637;55.770;37.592;2024-02-28T02:51:26;100722.13;;;-1.55;63.20
34374;BME280;20637;55.770;37.592;2024-02-28T02:53:52;100716.84;;;-1.55;63.51
34374;BME280;20637;55.770;37.592;2024-02-28T02:56:19;100724.63;;;-1.52;63.35
34374;BME280;20637;55.770;37.592;2024-02-28T02:58:44;100716.03;;;-1.57;63.72
34374;BME280;20637;55.770;37.592;2024-02-28T03:01:10;100725.84;;;-1.59;63.59
34374;BME280;20637;55.770;37.592;2024-02-28T03:03:35;100718.81;;;-1.60;63.62
34374;BME280;20637;55.770;37.592;2024-02-28T03:06:04;100714.38;;;-1.60;63.42
34374;BME280;20637;55.770;37.592;2024-02-28T03:08:30;100719.81;;;-1.63;63.82
34374;BME280;20637;55.770;37.592;2024-02-28T03:10:56;100710.88;;;-1.60;63.83
34374;BME280;20637;55.770;37.592;2024-02-28T03:13:22;100712.59;;;-1.59;63.94
34374;BME280;20637;55.770;37.592;2024-02-28T03:15:48;100711.72;;;-1.60;64.11
34374;BME280;20637;55.770;37.592;2024-02-28T03:18:14;100712.59;;;-1.59;64.00
34374;BME280;20637;55.770;37.592;2024-02-28T03:20:39;100710.00;;;-1.61;64.07
34374;BME280;20637;55.770;37.592;2024-02-28T03:23:05;100708.50;;;-1.66;64.27
34374;BME280;20637;55.770;37.592;2024-02-28T03:25:32;100710.19;;;-1.65;63.89
34374;BME280;20637;55.770;37.592;2024-02-28T03:27:58;100693.53;;;-1.67;64.24
34374;BME280;20637;55.770;37.592;2024-02-28T03:30:25;100703.31;;;-1.69;64.26
34374;BME280;20637;55.770;37.592;2024-02-28T03:32:51;100710.53;;;-1.73;64.73
34374;BME280;20637;55.770;37.592;2024-02-28T03:35:16;100707.81;;;-1.71;64.44
34374;BME280;20637;55.770;37.592;2024-02-28T03:37:42;100711.13;;;-1.66;64.20
34374;BME280;20637;55.770;37.592;2024-02-28T03:40:08;100703.25;;;-1.68;64.68
34374;BME280;20637;55.770;37.592;2024-02-28T03:42:34;100699.00;;;-1.72;64.43
34374;BME280;20637;55.770;37.592;2024-02-28T03:44:59;100701.78;;;-1.75;64.52
34374;BME280;20637;55.770;37.592;2024-02-28T03:47:25;100695.69;;;-1.77;64.25
34374;BME280;20637;55.770;37.592;2024-02-28T03:49:51;100693.91;;;-1.76;64.48
34374;BME280;20637;55.770;37.592;2024-02-28T03:52:17;100708.16;;;-1.79;64.51
34374;BME280;20637;55.770;37.592;2024-02-28T03:54:43;100700.97;;;-1.77;64.46
34374;BME280;20637;55.770;37.592;2024-02-28T03:57:09;100707.22;;;-1.78;64.63
34374;BME280;20637;55.770;37.592;2024-02-28T03:59:34;100707.13;;;-1.76;64.64
34374;BME280;20637;55.770;37.592;2024-02-28T04:02:00;100705.41;;;-1.77;64.89
34374;BME280;20637;55.770;37.592;2024-02-28T04:04:26;100700.38;;;-1.83;64.84
34374;BME280;20637;55.770;37.592;2024-02-28T04:06:51;100716.09;;;-1.79;65.05
34374;BME280;20637;55.770;37.592;2024-02-28T04:09:17;100709.88;;;-1.78;65.30
34374;BME280;20637;55.770;37.592;2024-02-28T04:11:43;100706.38;;;-1.78;65.18
34374;BME280;20637;55.770;37.592;2024-02-28T04:14:09;100705.53;;;-1.80;64.54
34374;BME280;20637;55.770;37.592;2024-02-28T04:16:34;100705.53;;;-1.80;64.79
34374;BME280;20637;55.770;37.592;2024-02-28T04:19:00;100702.91;;;-1.80;64.44
34374;BME280;20637;55.770;37.592;2024-02-28T04:21:26;100718.59;;;-1.76;64.92
34374;BME280;20637;55.770;37.592;2024-02-28T04:23:51;100719.31;;;-1.72;65.34
34374;BME280;20637;55.770;37.592;2024-02-28T04:26:17;100718.31;;;-1.70;65.31
34374;BME280;20637;55.770;37.592;2024-02-28T04:28:43;100725.22;;;-1.66;64.84
34374;BME280;20637;55.770;37.592;2024-02-28T04:31:08;100721.66;;;-1.65;64.99
34374;BME280;20637;55.770;37.592;2024-02-28T04:33:35;100714.44;;;-1.61;65.03
34374;BME280;20637;55.770;37.592;2024-02-28T04:36:01;100713.38;;;-1.57;64.93
34374;BME280;20637;55.770;37.592;2024-02-28T04:38:27;100707.16;;;-1.56;65.10
34374;BME280;20637;55.770;37.592;2024-02-28T04:40:53;100709.94;;;-1.59;64.78
34374;BME280;20637;55.770;37.592;2024-02-28T04:43:18;100700.47;;;-1.65;64.54
34374;BME280;20637;55.770;37.592;2024-02-28T04:45:44;100705.94;;;-1.69;64.71
34374;BME280;20637;55.770;37.592;2024-02-28T04:48:10;100708.50;;;-1.66;65.17
34374;BME280;20637;55.770;37.592;2024-02-28T04:50:35;100710.19;;;-1.65;65.23
34374;BME280;20637;55.770;37.592;2024-02-28T04:53:01;100707.44;;;-1.62;65.07
34374;BME280;20637;55.770;37.592;2024-02-28T04:55:27;100720.59;;;-1.61;64.70
34374;BME280;20637;55.770;37.592;2024-02-28T04:57:52;100721.41;;;-1.59;65.21
34374;BME280;20637;55.770;37.592;2024-02-28T05:00:18;100711.72;;;-1.60;64.73
34374;BME280;20637;55.770;37.592;2024-02-28T05:02:44;100717.03;;;-1.60;65.06
34374;BME280;20637;55.770;37.592;2024-02-28T05:05:09;100712.41;;;-1.55;64.81
34374;BME280;20637;55.770;37.592;2024-02-28T05:07:35;100711.25;;;-1.49;64.83
34374;BME280;20637;55.770;37.592;2024-02-28T05:10:00;100711.31;;;-1.51;64.79
34374;BME280;20637;55.770;37.592;2024-02-28T05:12:26;100711.13;;;-1.46;64.66
34374;BME280;20637;55.770;37.592;2024-02-28T05:14:52;100708.63;;;-1.49;64.96
34374;BME280;20637;55.770;37.592;2024-02-28T05:17:18;100706.25;;;-1.55;65.26
34374;BME280;20637;55.770;37.592;2024-02-28T05:19:43;100714.09;;;-1.54;65.38
34374;BME280;20637;55.770;37.592;2024-02-28T05:22:09;100708.63;;;-1.49;64.73
34374;BME280;20637;55.770;37.592;2024-02-28T05:24:37;100700.63;;;-1.48;65.08
34374;BME280;20637;55.770;37.592;2024-02-28T05:27:02;100698.69;;;-1.44;64.92
34374;BME280;20637;55.770;37.592;2024-02-28T05:29:28;100699.41;;;-1.40;64.41
34374;BME280;20637;55.770;37.592;2024-02-28T05:31:54;100707.16;;;-1.36;64.87
34374;BME280;20637;55.770;37.592;2024-02-28T05:34:20;100712.47;;;-1.36;64.68
34374;BME280;20637;55.770;37.592;2024-02-28T05:36:45;100710.69;;;-1.35;64.77
34374;BME280;20637;55.770;37.592;2024-02-28T05:39:11;100708.81;;;-1.33;65.27
34374;BME280;20637;55.770;37.592;2024-02-28T05:41:37;100704.44;;;-1.34;64.65
34374;BME280;20637;55.770;37.592;2024-02-28T05:44:02;100697.50;;;-1.37;64.19
34374;BME280;20637;55.770;37.592;2024-02-28T05:46:28;100697.50;;;-1.37;64.90
34374;BME280;20637;55.770;37.592;2024-02-28T05:48:54;100694.50;;;-1.29;65.26
34374;BME280;20637;55.770;37.592;2024-02-28T05:51:19;100702.38;;;-1.28;64.45
34374;BME280;20637;55.770;37.592;2024-02-28T05:53:45;100702.31;;;-1.26;64.84
34374;BME280;20637;55.770;37.592;2024-02-28T05:56:11;100701.53;;;-1.28;64.87
34374;BME280;20637;55.770;37.592;2024-02-28T05:58:43;100703.16;;;-1.26;64.61
34374;BME280;20637;55.770;37.592;2024-02-28T06:01:10;100702.81;;;-1.18;64.68
34374;BME280;20637;55.770;37.592;2024-02-28T06:03:39;100702.06;;;-1.20;64.66
34374;BME280;20637;55.770;37.592;2024-02-28T06:06:04;100699.13;;;-1.14;64.43
34374;BME280;20637;55.770;37.592;2024-02-28T06:08:38;100701.63;;;-1.11;64.96
34374;BME280;20637;55.770;37.592;2024-02-28T06:11:04;100705.06;;;-1.09;64.16
34374;BME280;20637;55.770;37.592;2024-02-28T06:13:30;100710.19;;;-1.05;64.61
34374;BME280;20637;55.770;37.592;2024-02-28T06:15:57;100708.97;;;-0.98;64.27
34374;BME280;20637;55.770;37.592;2024-02-28T06:18:26;100715.03;;;-0.96;64.50
34374;BME280;20637;55.770;37.592;2024-02-28T06:20:56;100708.66;;;-0.91;64.00
34374;BME280;20637;55.770;37.592;2024-02-28T06:23:22;100722.84;;;-0.92;64.12
34374;BME280;20637;55.770;37.592;2024-02-28T06:25:49;100718.41;;;-0.92;64.33
34374;BME280;20637;55.770;37.592;2024-02-28T06:28:14;100714.97;;;-0.94;64.11
34374;BME280;20637;55.770;37.592;2024-02-28T06:30:40;100713.91;;;-0.90;63.84
34374;BME280;20637;55.770;37.592;2024-02-28T06:33:06;100722.50;;;-0.85;64.21
34374;BME280;20637;55.770;37.592;2024-02-28T06:35:34;100717.84;;;-0.80;63.78
34374;BME280;20637;55.770;37.592;2024-02-28T06:38:00;100727.38;;;-0.76;64.36
34374;BME280;20637;55.770;37.592;2024-02-28T06:40:26;100723.47;;;-0.67;64.05
34374;BME280;20637;55.770;37.592;2024-02-28T06:42:52;100718.88;;;-0.64;64.04
34374;BME280;20637;55.770;37.592;2024-02-28T06:45:18;100724.16;;;-0.64;64.04
34374;BME280;20637;55.770;37.592;2024-02-28T06:47:43;100727.59;;;-0.62;63.63
34374;BME280;20637;55.770;37.592;2024-02-28T06:50:10;100726.53;;;-0.58;63.42
34374;BME280;20637;55.770;37.592;2024-02-28T06:52:36;100722.59;;;-0.49;64.21
34374;BME280;20637;55.770;37.592;2024-02-28T06:55:02;100721.31;;;-0.40;64.01
34374;BME280;20637;55.770;37.592;2024-02-28T06:57:40;100717.78;;;-0.41;63.53
34374;BME280;20637;55.770;37.592;2024-02-28T07:00:08;100724.16;;;-0.45;63.10
34374;BME280;20637;55.770;37.592;2024-02-28T07:02:35;100725.41;;;-0.52;62.75
34374;BME280;20637;55.770;37.592;2024-02-28T07:05:02;100721.88;;;-0.53;63.23
34374;BME280;20637;55.770;37.592;2024-02-28T07:07:31;100724.31;;;-0.48;63.20
34374;BME280;20637;55.770;37.592;2024-02-28T07:09:57;100726.41;;;-0.36;63.36
34374;BME280;20637;55.770;37.592;2024-02-28T07:12:23;100724.84;;;-0.23;63.30
34374;BME280;20637;55.770;37.592;2024-02-28T07:14:50;100729.56;;;-0.11;62.73
34374;BME280;20637;55.770;37.592;2024-02-28T07:17:16;100720.38;;;-0.04;62.61
34374;BME280;20637;55.770;37.592;2024-02-28T07:19:42;100727.34;;;-0.01;62.43
34374;BME280;20637;55.770;37.592;2024-02-28T07:22:08;100724.31;;;0.07;62.26
34374;BME280;20637;55.770;37.592;2024-02-28T07:24:33;100722.75;;;0.20;62.29
34374;BME280;20637;55.770;37.592;2024-02-28T07:26:59;100724.47;;;0.21;62.28
34374;BME280;20637;55.770;37.592;2024-02-28T07:29:25;100731.19;;;0.28;62.07
34374;BME280;20637;55.770;37.592;2024-02-28T07:31:51;100729.13;;;0.34;61.73
34374;BME280;20637;55.770;37.592;2024-02-28T07:34:16;100729.66;;;0.41;61.19
34374;BME280;20637;55.770;37.592;2024-02-28T07:36:42;100729.19;;;0.50;61.62
34374;BME280;20637;55.770;37.592;2024-02-28T07:39:08;100725.34;;;0.56;61.56
34374;BME280;20637;55.770;37.592;2024-02-28T07:41:41;100728.94;;;0.55;61.42
34374;BME280;20637;55.770;37.592;2024-02-28T07:44:08;100727.84;;;0.59;61.00
34374;BME280;20637;55.770;37.592;2024-02-28T07:46:34;100723.94;;;0.66;61.11
34374;BME280;20637;55.770;37.592;2024-02-28T07:49:00;100717.44;;;0.71;60.46
34374;BME280;20637;55.770;37.592;2024-02-28T07:51:28;100714.72;;;0.73;60.84
34374;BME280;20637;55.770;37.592;2024-02-28T07:53:53;100730.13;;;0.66;60.60
34374;BME280;20637;55.770;37.592;2024-02-28T07:56:20;100722.13;;;0.66;60.90
34374;BME280;20637;55.770;37.592;2024-02-28T07:58:47;100712.84;;;0.75;60.64
34374;BME280;20637;55.770;37.592;2024-02-28T08:01:13;100707.81;;;0.86;60.43
34374;BME280;20637;55.770;37.592;2024-02-28T08:03:39;100707.50;;;0.92;60.62
34374;BME280;20637;55.770;37.592;2024-02-28T08:06:04;100710.16;;;0.92;60.30
34374;BME280;20637;55.770;37.592;2024-02-28T08:08:30;100706.72;;;0.90;60.88
34374;BME280;20637;55.770;37.592;2024-02-28T08:10:56;100715.31;;;0.95;61.16
34374;BME280;20637;55.770;37.592;2024-02-28T08:13:22;100718.31;;;1.05;61.18
34374;BME280;20637;55.770;37.592;2024-02-28T08:15:47;100716.75;;;1.18;61.18
34374;BME280;20637;55.770;37.592;2024-02-28T08:18:13;100711.78;;;1.27;61.10
34374;BME280;20637;55.770;37.592;2024-02-28T08:20:39;100716.75;;;1.33;60.87
34374;BME280;20637;55.770;37.592;2024-02-28T08:23:05;100715.66;;;1.37;60.75
34374;BME280;20637;55.770;37.592;2024-02-28T08:25:31;100702.44;;;1.36;60.18
34374;BME280;20637;55.770;37.592;2024-02-28T08:27:57;100701.88;;;1.47;60.66
34374;BME280;20637;55.770;37.592;2024-02-28T08:30:23;100700.28;;;1.89;61.16
34374;BME280;20637;55.770;37.592;2024-02-28T08:32:49;100694.56;;;2.27;61.16
34374;BME280;20637;55.770;37.592;2024-02-28T08:35:16;100690.09;;;2.71;61.42
34374;BME280;20637;55.770;37.592;2024-02-28T08:37:42;60176.38;;;-142.37;48.05
34374;BME280;20637;55.770;37.592;2024-02-28T08:40:08;100687.81;;;3.50;59.79
34374;BME280;20637;55.770;37.592;2024-02-28T08:42:34;100690.16;;;3.69;59.41
34374;BME280;20637;55.770;37.592;2024-02-28T08:45:00;100680.56;;;3.93;58.82
34374;BME280;20637;55.770;37.592;2024-02-28T08:47:27;100692.94;;;3.94;58.12
34374;BME280;20637;55.770;37.592;2024-02-28T08:49:53;100674.06;;;4.10;58.15
34374;BME280;20637;55.770;37.592;2024-02-28T08:52:20;100673.06;;;3.98;56.76
34374;BME280;20637;55.770;37.592;2024-02-28T08:54:46;100671.03;;;3.75;56.97
34374;BME280;20637;55.770;37.592;2024-02-28T08:57:13;100682.22;;;3.81;57.27
34374;BME280;20637;55.770;37.592;2024-02-28T08:59:39;100673.19;;;3.97;57.27
34374;BME280;20637;55.770;37.592;2024-02-28T09:02:06;100671.59;;;4.07;57.60
34374;BME280;20637;55.770;37.592;2024-02-28T09:04:32;100666.91;;;4.10;56.65
34374;BME280;20637;55.770;37.592;2024-02-28T09:06:58;100663.50;;;4.08;56.58
34374;BME280;20637;55.770;37.592;2024-02-28T09:09:23;100666.06;;;4.10;56.17
34374;BME280;20637;55.770;37.592;2024-02-28T09:11:49;100659.63;;;4.00;55.82
34374;BME280;20637;55.770;37.592;2024-02-28T09:14:15;100659.09;;;4.07;57.06
34374;BME280;20637;55.770;37.592;2024-02-28T09:16:41;100656.00;;;4.13;56.10
34374;BME280;20637;55.770;37.592;2024-02-28T09:19:06;100650.78;;;4.12;56.10
34374;BME280;20637;55.770;37.592;2024-02-28T09:21:33;100650.97;;;4.36;57.09
34374;BME280;20637;55.770;37.592;2024-02-28T09:23:59;100644.78;;;4.73;56.28
34374;BME280;20637;55.770;37.592;2024-02-28T09:26:24;100644.66;;;4.49;54.03
34374;BME280;20637;55.770;37.592;2024-02-28T09:28:51;100653.47;;;4.12;54.42
34374;BME280;20637;55.770;37.592;2024-02-28T09:31:17;100645.53;;;3.98;54.42
34374;BME280;20637;55.770;37.592;2024-02-28T09:33:43;100647.78;;;4.04;54.84
34374;BME280;20637;55.770;37.592;2024-02-28T09:36:12;100646.63;;;4.08;55.80
34374;BME280;20637;55.770;37.592;2024-02-28T09:38:38;100648.13;;;4.12;55.03
34374;BME280;20637;55.770;37.592;2024-02-28T09:41:04;100647.50;;;3.94;54.63
34374;BME280;20637;55.770;37.592;2024-02-28T09:43:36;100637.91;;;3.92;54.89
34374;BME280;20637;55.770;37.592;2024-02-28T09:46:06;100643.81;;;3.97;55.19
34374;BME280;20637;55.770;37.592;2024-02-28T09:48:32;100645.97;;;4.04;54.92
34374;BME280;20637;55.770;37.592;2024-02-28T09:50:59;100641.47;;;4.05;54.69
34374;BME280;20637;55.770;37.592;2024-02-28T09:53:26;100643.59;;;4.00;54.54
34374;BME280;20637;55.770;37.592;2024-02-28T09:55:53;100645.19;;;4.02;54.36
34374;BME280;20637;55.770;37.592;2024-02-28T09:58:19;100648.34;;;4.09;54.48
34374;BME280;20637;55.770;37.592;2024-02-28T10:00:48;100646.75;;;4.19;54.36
34374;BME280;20637;55.770;37.592;2024-02-28T10:03:17;100651.13;;;4.20;54.30
34374;BME280;20637;55.770;37.592;2024-02-28T10:05:46;100645.56;;;4.23;54.23
34374;BME280;20637;55.770;37.592;2024-02-28T10:08:12;100653.25;;;4.15;53.90
34374;BME280;20637;55.770;37.592;2024-02-28T10:10:49;100651.66;;;4.12;54.25
34374;BME280;20637;55.770;37.592;2024-02-28T10:13:18;100654.53;;;4.09;53.98
34374;BME280;20637;55.770;37.592;2024-02-28T10:15:44;100646.41;;;4.11;53.91
34374;BME280;20637;55.770;37.592;2024-02-28T10:18:10;100646.31;;;4.12;53.78
34374;BME280;20637;55.770;37.592;2024-02-28T10:20:36;100644.63;;;4.24;54.29
34374;BME280;20637;55.770;37.592;2024-02-28T10:23:06;100652.97;;;4.32;53.94
34374;BME280;20637;55.770;37.592;2024-02-28T10:25:41;100646.56;;;4.35;53.89
34374;BME280;20637;55.770;37.592;2024-02-28T10:28:07;100648.47;;;4.32;53.85
34374;BME280;20637;55.770;37.592;2024-02-28T10:30:38;100635.22;;;4.31;53.45
34374;BME280;20637;55.770;37.592;2024-02-28T10:33:05;100642.09;;;4.35;53.77
34374;BME280;20637;55.770;37.592;2024-02-28T10:35:31;100641.44;;;4.44;54.28
34374;BME280;20637;55.770;37.592;2024-02-28T10:37:57;100639.63;;;4.57;54.06
34374;BME280;20637;55.770;37.592;2024-02-28T10:40:22;100637.84;;;4.70;53.67
34374;BME280;20637;55.770;37.592;2024-02-28T10:42:48;100640.94;;;4.77;53.76
34374;BME280;20637;55.770;37.592;2024-02-28T10:45:17;100637.50;;;4.88;53.60
34374;BME280;20637;55.770;37.592;2024-02-28T10:47:43;100639.63;;;4.95;53.16
34374;BME280;20637;55.770;37.592;2024-02-28T10:50:09;100634.41;;;4.94;52.99
34374;BME280;20637;55.770;37.592;2024-02-28T10:52:39;100645.84;;;4.96;53.07
34374;BME280;20637;55.770;37.592;2024-02-28T10:55:08;100637.81;;;4.96;53.02
34374;BME280;20637;55.770;37.592;2024-02-28T10:57:36;100631.28;;;5.00;53.35
34374;BME280;20637;55.770;37.592;2024-02-28T11:00:04;100632.47;;;4.96;53.12
34374;BME280;20637;55.770;37.592;2024-02-28T11:02:31;100627.56;;;4.77;52.91
34374;BME280;20637;55.770;37.592;2024-02-28T11:04:57;100626.06;;;4.73;52.97
34374;BME280;20637;55.770;37.592;2024-02-28T11:07:26;100615.91;;;4.78;53.18
34374;BME280;20637;55.770;37.592;2024-02-28T11:09:55;100620.06;;;4.82;53.02
34374;BME280;20637;55.770;37.592;2024-02-28T11:12:28;100614.38;;;4.87;53.15
34374;BME280;20637;55.770;37.592;2024-02-28T11:14:58;100617.06;;;4.99;53.47
34374;BME280;20637;55.770;37.592;2024-02-28T11:17:30;100609.34;;;5.07;53.24
34374;BME280;20637;55.770;37.592;2024-02-28T11:19:59;100606.56;;;5.09;52.96
34374;BME280;20637;55.770;37.592;2024-02-28T11:22:28;100602.56;;;5.14;53.49
34374;BME280;20637;55.770;37.592;2024-02-28T11:24:55;100606.00;;;5.16;53.07
34374;BME280;20637;55.770;37.592;2024-02-28T11:27:21;100605.94;;;5.05;52.86
34374;BME280;20637;55.770;37.592;2024-02-28T11:29:47;100609.25;;;4.96;52.97
34374;BME280;20637;55.770;37.592;2024-02-28T11:32:15;100607.13;;;4.89;53.18
34374;BME280;20637;55.770;37.592;2024-02-28T11:34:42;100611.38;;;4.91;53.37
34374;BME280;20637;55.770;37.592;2024-02-28T11:37:09;100612.03;;;4.95;53.44
34374;BME280;20637;55.770;37.592;2024-02-28T11:39:35;100605.16;;;5.03;53.78
34374;BME280;20637;55.770;37.592;2024-02-28T11:42:11;100601.75;;;5.01;53.46
34374;BME280;20637;55.770;37.592;2024-02-28T11:44:38;100599.94;;;5.02;53.52
34374;BME280;20637;55.770;37.592;2024-02-28T11:47:04;100604.84;;;5.08;53.50
34374;BME280;20637;55.770;37.592;2024-02-28T11:49:33;100599.56;;;5.19;53.56
34374;BME280;20637;55.770;37.592;2024-02-28T11:51:58;100600.34;;;5.21;53.03
34374;BME280;20637;55.770;37.592;2024-02-28T11:54:24;100597.53;;;5.22;53.16
34374;BME280;20637;55.770;37.592;2024-02-28T11:56:50;100599.47;;;5.20;53.19
34374;BME280;20637;55.770;37.592;2024-02-28T11:59:16;100604.28;;;5.15;52.86
34374;BME280;20637;55.770;37.592;2024-02-28T12:01:43;100597.84;;;5.18;53.24
34374;BME280;20637;55.770;37.592;2024-02-28T12:04:09;100592.81;;;5.26;53.64
34374;BME280;20637;55.770;37.592;2024-02-28T12:06:37;100596.06;;;5.79;55.37
34374;BME280;20637;55.770;37.592;2024-02-28T12:09:04;100589.06;;;6.23;54.63
34374;BME280;20637;55.770;37.592;2024-02-28T12:11:30;100582.63;;;6.37;53.55
34374;BME280;20637;55.770;37.592;2024-02-28T12:13:56;100579.50;;;6.65;54.10
34374;BME280;20637;55.770;37.592;2024-02-28T12:16:25;100586.25;;;6.82;53.26
34374;BME280;20637;55.770;37.592;2024-02-28T12:18:52;100581.13;;;7.01;53.38
34374;BME280;20637;55.770;37.592;2024-02-28T12:21:19;100575.63;;;7.14;53.09
34374;BME280;20637;55.770;37.592;2024-02-28T12:23:46;100577.44;;;7.13;52.47
34374;BME280;20637;55.770;37.592;2024-02-28T12:26:12;100576.09;;;7.08;52.54
34374;BME280;20637;55.770;37.592;2024-02-28T12:28:37;100577.69;;;7.22;53.61
34374;BME280;20637;55.770;37.592;2024-02-28T12:31:03;100573.53;;;7.29;52.77
34374;BME280;20637;55.770;37.592;2024-02-28T12:33:30;100560.06;;;7.40;53.01
34374;BME280;20637;55.770;37.592;2024-02-28T12:35:56;100559.19;;;7.50;52.83
34374;BME280;20637;55.770;37.592;2024-02-28T12:38:22;100559.03;;;7.63;52.18